sensor_id;sensor_type;location;lat;lon;timestamp;temperature;humidity
4429;DHT22;2227;47.810;8.810;2022-11-15T04:46:06;5.80;99.90
4429;DHT22;2227;47.810;8.810;2022-11-15T04:48:33;5.70;99.90
4429;DHT22;2227;47.810;8.810;2022-11-15T04:51:00;5.70;99.90
4429;DHT22;2227;47.810;8.810;2022-11-15T04:53:27;5.70;99.90
4429;DHT22;2227;47.810;8.810;2022-11-15T04:55:54;5.60;99.90
4429;DHT22;2227;47.810;8.810;2022-11-15T04:58:20;5.60;99.90
4429;DHT22;2227;47.810;8.810;2022-11-15T05:00:47;5.60;99.90
4429;DHT22;2227;47.810;8.810;2022-11-15T05:03:14;5.70;99.90
4429;DHT22;2227;47.810;8.810;2022-11-15T05:06:00;5.60;99.90
4429;DHT22;2227;47.810;8.810;2022-11-15T05:08:27;5.60;99.90
4429;DHT22;2227;47.810;8.810;2022-11-15T05:10:54;5.60;99.90
4429;DHT22;2227;47.810;8.810;2022-11-15T05:13:22;5.50;99.90
4429;DHT22;2227;47.810;8.810;2022-11-15T05:15:49;5.40;99.90
4429;DHT22;2227;47.810;8.810;2022-11-15T05:18:15;5.40;99.90
4429;DHT22;2227;47.810;8.810;2022-11-15T05:20:48;5.40;99.90
4429;DHT22;2227;47.810;8.810;2022-11-15T05:23:15;5.30;99.90
4429;DHT22;2227;47.810;8.810;2022-11-15T05:25:42;5.30;99.90
4429;DHT22;2227;47.810;8.810;2022-11-15T05:28:09;5.30;99.90
4429;DHT22;2227;47.810;8.810;2022-11-15T05:30:35;5.10;99.90
4429;DHT22;2227;47.810;8.810;2022-11-15T05:33:02;5.00;99.90
4429;DHT22;2227;47.810;8.810;2022-11-15T05:35:38;5.00;99.90
4429;DHT22;2227;47.810;8.810;2022-11-15T05:38:07;5.10;99.90
4429;DHT22;2227;47.810;8.810;2022-11-15T05:40:34;5.10;99.90
4429;DHT22;2227;47.810;8.810;2022-11-15T05:43:03;5.10;99.90
4429;DHT22;2227;47.810;8.810;2022-11-15T05:45:31;5.00;99.90
4429;DHT22;2227;47.810;8.810;2022-11-15T05:48:01;5.00;99.90
4429;DHT22;2227;47.810;8.810;2022-11-15T05:50:30;5.10;99.90
4429;DHT22;2227;47.810;8.810;2022-11-15T05:52:58;5.10;99.90
4429;DHT22;2227;47.810;8.810;2022-11-15T05:55:30;5.10;99.90
4429;DHT22;2227;47.810;8.810;2022-11-15T05:57:58;5.20;99.90
4429;DHT22;2227;47.810;8.810;2022-11-15T06:00:24;5.20;99.90
4429;DHT22;2227;47.810;8.810;2022-11-15T06:02:51;5.30;99.90
4429;DHT22;2227;47.810;8.810;2022-11-15T06:05:18;5.30;99.90
4429;DHT22;2227;47.810;8.810;2022-11-15T06:07:45;5.40;99.90
4429;DHT22;2227;47.810;8.810;2022-11-15T06:10:11;5.40;99.90
4429;DHT22;2227;47.810;8.810;2022-11-15T06:12:38;5.40;99.90
4429;DHT22;2227;47.810;8.810;2022-11-15T06:15:05;5.50;99.90
4429;DHT22;2227;47.810;8.810;2022-11-15T06:17:32;5.50;99.90
4429;DHT22;2227;47.810;8.810;2022-11-15T06:19:59;5.50;99.90
4429;DHT22;2227;47.810;8.810;2022-11-15T06:22:25;5.50;99.90
4429;DHT22;2227;47.810;8.810;2022-11-15T06:24:52;5.50;99.90
4429;DHT22;2227;47.810;8.810;2022-11-15T06:27:19;5.50;99.90
4429;DHT22;2227;47.810;8.810;2022-11-15T06:29:45;5.50;99.90
4429;DHT22;2227;47.810;8.810;2022-11-15T06:32:12;5.60;99.90
4429;DHT22;2227;47.810;8.810;2022-11-15T06:34:39;5.70;99.90
4429;DHT22;2227;47.810;8.810;2022-11-15T06:37:06;5.60;99.90
4429;DHT22;2227;47.810;8.810;2022-11-15T06:39:32;5.70;99.90
4429;DHT22;2227;47.810;8.810;2022-11-15T06:41:59;5.80;99.90
4429;DHT22;2227;47.810;8.810;2022-11-15T06:44:26;5.90;99.90
4429;DHT22;2227;47.810;8.810;2022-11-15T06:46:52;5.90;99.90
4429;DHT22;2227;47.810;8.810;2022-11-15T06:49:19;5.90;99.90
4429;DHT22;2227;47.810;8.810;2022-11-15T06:51:46;5.90;99.90
4429;DHT22;2227;47.810;8.810;2022-11-15T06:54:12;6.00;99.90
4429;DHT22;2227;47.810;8.810;2022-11-15T06:56:39;6.00;99.90
4429;DHT22;2227;47.810;8.810;2022-11-15T06:59:06;6.10;99.90
4429;DHT22;2227;47.810;8.810;2022-11-15T07:01:33;6.20;99.90
4429;DHT22;2227;47.810;8.810;2022-11-15T07:03:59;6.20;99.90
4429;DHT22;2227;47.810;8.810;2022-11-15T07:06:26;6.30;99.90
4429;DHT22;2227;47.810;8.810;2022-11-15T07:08:53;6.40;99.90
4429;DHT22;2227;47.810;8.810;2022-11-15T07:11:20;6.50;99.90
4429;DHT22;2227;47.810;8.810;2022-11-15T07:13:46;6.60;99.90
4429;DHT22;2227;47.810;8.810;2022-11-15T07:16:13;6.70;99.90
4429;DHT22;2227;47.810;8.810;2022-11-15T07:18:40;6.80;99.90
4429;DHT22;2227;47.810;8.810;2022-11-15T07:21:09;6.90;99.90
4429;DHT22;2227;47.810;8.810;2022-11-15T07:23:37;7.10;99.90
4429;DHT22;2227;47.810;8.810;2022-11-15T07:26:05;7.30;99.90
4429;DHT22;2227;47.810;8.810;2022-11-15T07:28:32;7.40;99.90
4429;DHT22;2227;47.810;8.810;2022-11-15T07:31:03;7.60;99.90
4429;DHT22;2227;47.810;8.810;2022-11-15T07:33:30;7.80;99.90
4429;DHT22;2227;47.810;8.810;2022-11-15T07:36:02;8.00;99.90
4429;DHT22;2227;47.810;8.810;2022-11-15T07:38:29;8.10;99.90
4429;DHT22;2227;47.810;8.810;2022-11-15T07:41:01;8.20;99.90
4429;DHT22;2227;47.810;8.810;2022-11-15T07:43:28;8.30;99.90
4429;DHT22;2227;47.810;8.810;2022-11-15T07:45:56;8.30;99.90
4429;DHT22;2227;47.810;8.810;2022-11-15T07:48:25;8.30;99.90
4429;DHT22;2227;47.810;8.810;2022-11-15T07:51:11;8.30;99.90
4429;DHT22;2227;47.810;8.810;2022-11-15T07:53:40;8.30;99.90
4429;DHT22;2227;47.810;8.810;2022-11-15T07:56:08;8.20;99.90
4429;DHT22;2227;47.810;8.810;2022-11-15T07:58:35;8.30;99.90
4429;DHT22;2227;47.810;8.810;2022-11-15T08:01:04;8.30;99.90
4429;DHT22;2227;47.810;8.810;2022-11-15T08:03:32;8.50;99.90
4429;DHT22;2227;47.810;8.810;2022-11-15T08:06:00;8.60;99.90
4429;DHT22;2227;47.810;8.810;2022-11-15T08:08:27;8.80;99.90
4429;DHT22;2227;47.810;8.810;2022-11-15T08:10:54;8.80;99.90
4429;DHT22;2227;47.810;8.810;2022-11-15T08:13:20;8.90;99.90
4429;DHT22;2227;47.810;8.810;2022-11-15T08:15:47;8.90;99.90
4429;DHT22;2227;47.810;8.810;2022-11-15T08:18:21;9.00;99.90
4429;DHT22;2227;47.810;8.810;2022-11-15T08:20:48;9.20;99.90
4429;DHT22;2227;47.810;8.810;2022-11-15T08:23:15;9.30;99.90
4429;DHT22;2227;47.810;8.810;2022-11-15T08:25:42;9.50;99.90
4429;DHT22;2227;47.810;8.810;2022-11-15T08:28:10;9.80;99.90
4429;DHT22;2227;47.810;8.810;2022-11-15T08:30:39;10.00;99.90
4429;DHT22;2227;47.810;8.810;2022-11-15T08:33:13;10.00;99.90
4429;DHT22;2227;47.810;8.810;2022-11-15T08:35:41;10.10;99.90
4429;DHT22;2227;47.810;8.810;2022-11-15T08:38:09;10.10;99.90
4429;DHT22;2227;47.810;8.810;2022-11-15T08:40:36;10.00;99.90
4429;DHT22;2227;47.810;8.810;2022-11-15T08:43:03;10.10;99.90
4429;DHT22;2227;47.810;8.810;2022-11-15T08:45:31;10.20;99.90
4429;DHT22;2227;47.810;8.810;2022-11-15T08:48:01;10.40;99.90
4429;DHT22;2227;47.810;8.810;2022-11-15T08:50:28;10.50;99.90
4429;DHT22;2227;47.810;8.810;2022-11-15T08:52:55;10.70;99.90
4429;DHT22;2227;47.810;8.810;2022-11-15T08:55:21;11.00;99.90
4429;DHT22;2227;47.810;8.810;2022-11-15T08:57:50;12.00;99.90
4429;DHT22;2227;47.810;8.810;2022-11-15T09:00:17;13.10;99.90
4429;DHT22;2227;47.810;8.810;2022-11-15T09:02:46;14.20;99.90
4429;DHT22;2227;47.810;8.810;2022-11-15T09:05:13;15.40;99.90
4429;DHT22;2227;47.810;8.810;2022-11-15T09:07:41;16.50;99.90
4429;DHT22;2227;47.810;8.810;2022-11-15T09:10:08;17.40;99.90
4429;DHT22;2227;47.810;8.810;2022-11-15T09:12:35;18.10;99.90
4429;DHT22;2227;47.810;8.810;2022-11-15T09:15:02;18.00;99.90
4429;DHT22;2227;47.810;8.810;2022-11-15T09:17:29;17.50;99.90
4429;DHT22;2227;47.810;8.810;2022-11-15T09:19:56;17.20;99.90
4429;DHT22;2227;47.810;8.810;2022-11-15T09:22:23;17.00;99.90
4429;DHT22;2227;47.810;8.810;2022-11-15T09:24:49;17.10;99.90
4429;DHT22;2227;47.810;8.810;2022-11-15T09:27:16;17.70;99.90
4429;DHT22;2227;47.810;8.810;2022-11-15T09:29:43;18.70;99.90
4429;DHT22;2227;47.810;8.810;2022-11-15T09:32:10;19.60;99.90
4429;DHT22;2227;47.810;8.810;2022-11-15T09:34:36;20.30;99.90
4429;DHT22;2227;47.810;8.810;2022-11-15T09:37:03;21.00;99.90
4429;DHT22;2227;47.810;8.810;2022-11-15T09:39:30;21.50;99.90
4429;DHT22;2227;47.810;8.810;2022-11-15T09:42:09;21.40;99.90
4429;DHT22;2227;47.810;8.810;2022-11-15T09:45:15;21.70;99.70
4429;DHT22;2227;47.810;8.810;2022-11-15T09:50:15;20.30;99.90
4429;DHT22;2227;47.810;8.810;2022-11-15T09:52:45;19.40;99.90
4429;DHT22;2227;47.810;8.810;2022-11-15T09:55:14;18.60;99.90
4429;DHT22;2227;47.810;8.810;2022-11-15T09:57:55;17.80;99.90
4429;DHT22;2227;47.810;8.810;2022-11-15T10:00:41;16.70;99.90
4429;DHT22;2227;47.810;8.810;2022-11-15T10:03:22;15.00;99.90
4429;DHT22;2227;47.810;8.810;2022-11-15T10:05:53;14.30;99.90
4429;DHT22;2227;47.810;8.810;2022-11-15T10:11:20;13.50;99.90
4429;DHT22;2227;47.810;8.810;2022-11-15T10:14:18;13.10;99.90
4429;DHT22;2227;47.810;8.810;2022-11-15T10:19:46;12.50;99.90
4429;DHT22;2227;47.810;8.810;2022-11-15T10:22:35;12.40;99.90
4429;DHT22;2227;47.810;8.810;2022-11-15T10:27:40;12.60;99.90
4429;DHT22;2227;47.810;8.810;2022-11-15T10:30:13;12.30;99.90
4429;DHT22;2227;47.810;8.810;2022-11-15T10:32:42;12.30;99.90
4429;DHT22;2227;47.810;8.810;2022-11-15T10:35:30;12.30;99.90
4429;DHT22;2227;47.810;8.810;2022-11-15T10:38:08;12.60;99.90
4429;DHT22;2227;47.810;8.810;2022-11-15T10:40:36;12.70;99.90
4429;DHT22;2227;47.810;8.810;2022-11-15T10:45:36;12.70;99.90
4429;DHT22;2227;47.810;8.810;2022-11-15T10:50:41;12.50;99.90
4429;DHT22;2227;47.810;8.810;2022-11-15T10:53:31;12.40;99.90
4429;DHT22;2227;47.810;8.810;2022-11-15T10:56:03;12.40;99.90
4429;DHT22;2227;47.810;8.810;2022-11-15T10:58:50;12.30;99.90
4429;DHT22;2227;47.810;8.810;2022-11-15T11:01:22;12.20;99.90
4429;DHT22;2227;47.810;8.810;2022-11-15T11:06:30;12.20;99.90
4429;DHT22;2227;47.810;8.810;2022-11-15T11:09:05;12.10;99.90
4429;DHT22;2227;47.810;8.810;2022-11-15T11:11:45;12.00;99.90
4429;DHT22;2227;47.810;8.810;2022-11-15T11:14:25;11.90;99.90
4429;DHT22;2227;47.810;8.810;2022-11-15T11:17:18;11.80;99.90
4429;DHT22;2227;47.810;8.810;2022-11-15T11:20:07;11.80;99.90
4429;DHT22;2227;47.810;8.810;2022-11-15T11:31:31;11.50;99.90
4429;DHT22;2227;47.810;8.810;2022-11-15T11:37:07;11.40;99.90
4429;DHT22;2227;47.810;8.810;2022-11-15T11:51:18;11.80;99.90
4429;DHT22;2227;47.810;8.810;2022-11-15T11:54:03;11.90;99.90
4429;DHT22;2227;47.810;8.810;2022-11-15T11:56:34;11.90;99.90
4429;DHT22;2227;47.810;8.810;2022-11-15T11:59:22;12.00;99.90
4429;DHT22;2227;47.810;8.810;2022-11-15T12:01:51;11.80;99.90
4429;DHT22;2227;47.810;8.810;2022-11-15T12:04:38;11.70;99.90
4429;DHT22;2227;47.810;8.810;2022-11-15T12:07:20;11.60;99.90
4429;DHT22;2227;47.810;8.810;2022-11-15T12:10:04;11.50;99.90
4429;DHT22;2227;47.810;8.810;2022-11-15T12:12:41;11.50;99.90
4429;DHT22;2227;47.810;8.810;2022-11-15T12:17:38;11.60;99.90
4429;DHT22;2227;47.810;8.810;2022-11-15T12:20:31;11.50;99.90
4429;DHT22;2227;47.810;8.810;2022-11-15T12:23:12;11.50;99.90
4429;DHT22;2227;47.810;8.810;2022-11-15T12:26:00;11.40;99.90
4429;DHT22;2227;47.810;8.810;2022-11-15T12:28:55;11.40;99.90
4429;DHT22;2227;47.810;8.810;2022-11-15T12:31:54;11.30;99.90
4429;DHT22;2227;47.810;8.810;2022-11-15T12:34:56;11.30;99.90
4429;DHT22;2227;47.810;8.810;2022-11-15T12:43:33;11.30;99.90
4429;DHT22;2227;47.810;8.810;2022-11-15T12:45:54;11.30;99.90
4429;DHT22;2227;47.810;8.810;2022-11-15T12:51:03;11.30;99.90
4429;DHT22;2227;47.810;8.810;2022-11-15T12:53:31;11.20;99.90
4429;DHT22;2227;47.810;8.810;2022-11-15T12:58:54;11.40;99.90
4429;DHT22;2227;47.810;8.810;2022-11-15T13:06:48;11.10;99.90
4429;DHT22;2227;47.810;8.810;2022-11-15T13:12:01;11.10;99.90
4429;DHT22;2227;47.810;8.810;2022-11-15T13:14:38;11.10;99.90
4429;DHT22;2227;47.810;8.810;2022-11-15T13:17:26;11.10;99.90
4429;DHT22;2227;47.810;8.810;2022-11-15T13:20:00;11.00;99.90
4429;DHT22;2227;47.810;8.810;2022-11-15T13:22:27;10.90;99.90
4429;DHT22;2227;47.810;8.810;2022-11-15T13:27:54;10.80;99.90
4429;DHT22;2227;47.810;8.810;2022-11-15T13:30:29;10.80;99.90
4429;DHT22;2227;47.810;8.810;2022-11-15T13:33:05;10.90;99.90
4429;DHT22;2227;47.810;8.810;2022-11-15T13:35:38;10.90;99.90
4429;DHT22;2227;47.810;8.810;2022-11-15T13:38:06;11.00;99.90
4429;DHT22;2227;47.810;8.810;2022-11-15T13:40:37;11.00;99.90
4429;DHT22;2227;47.810;8.810;2022-11-15T13:43:36;11.10;99.90
4429;DHT22;2227;47.810;8.810;2022-11-15T13:46:17;11.10;99.90
4429;DHT22;2227;47.810;8.810;2022-11-15T13:48:46;11.20;99.90
4429;DHT22;2227;47.810;8.810;2022-11-15T13:51:39;11.10;99.90
4429;DHT22;2227;47.810;8.810;2022-11-15T13:56:59;11.20;99.90
4429;DHT22;2227;47.810;8.810;2022-11-15T13:59:53;11.10;99.90
4429;DHT22;2227;47.810;8.810;2022-11-15T14:02:26;11.20;99.90
4429;DHT22;2227;47.810;8.810;2022-11-15T14:04:57;11.10;99.90
4429;DHT22;2227;47.810;8.810;2022-11-15T14:07:27;11.00;99.90
4429;DHT22;2227;47.810;8.810;2022-11-15T14:09:55;11.00;99.90
4429;DHT22;2227;47.810;8.810;2022-11-15T14:12:32;11.00;99.90
4429;DHT22;2227;47.810;8.810;2022-11-15T14:17:45;10.90;99.90
4429;DHT22;2227;47.810;8.810;2022-11-15T14:23:17;10.90;99.90
4429;DHT22;2227;47.810;8.810;2022-11-15T14:25:53;11.00;99.90
4429;DHT22;2227;47.810;8.810;2022-11-15T14:30:56;10.90;99.90
4429;DHT22;2227;47.810;8.810;2022-11-15T14:33:39;10.80;99.90
4429;DHT22;2227;47.810;8.810;2022-11-15T14:36:20;10.70;99.90
4429;DHT22;2227;47.810;8.810;2022-11-15T14:38:47;10.60;99.90
4429;DHT22;2227;47.810;8.810;2022-11-15T14:41:21;10.50;99.90
4429;DHT22;2227;47.810;8.810;2022-11-15T14:43:50;10.50;99.90
4429;DHT22;2227;47.810;8.810;2022-11-15T14:46:17;10.60;99.90
4429;DHT22;2227;47.810;8.810;2022-11-15T14:48:44;10.70;99.90
4429;DHT22;2227;47.810;8.810;2022-11-15T14:51:16;10.70;99.90
4429;DHT22;2227;47.810;8.810;2022-11-15T14:53:44;10.70;99.90
4429;DHT22;2227;47.810;8.810;2022-11-15T14:56:11;10.80;99.90
4429;DHT22;2227;47.810;8.810;2022-11-15T14:58:38;10.80;99.90
4429;DHT22;2227;47.810;8.810;2022-11-15T15:01:20;10.80;99.90
4429;DHT22;2227;47.810;8.810;2022-11-15T15:03:47;10.80;99.90
4429;DHT22;2227;47.810;8.810;2022-11-15T15:06:14;10.70;99.90
4429;DHT22;2227;47.810;8.810;2022-11-15T15:08:45;10.70;99.90
4429;DHT22;2227;47.810;8.810;2022-11-15T15:11:21;10.70;99.90
4429;DHT22;2227;47.810;8.810;2022-11-15T15:13:49;10.70;99.90
4429;DHT22;2227;47.810;8.810;2022-11-15T15:16:16;10.70;99.90
4429;DHT22;2227;47.810;8.810;2022-11-15T15:18:42;10.60;99.90
4429;DHT22;2227;47.810;8.810;2022-11-15T15:21:26;10.60;99.90
4429;DHT22;2227;47.810;8.810;2022-11-15T15:24:03;10.60;99.90
4429;DHT22;2227;47.810;8.810;2022-11-15T15:26:30;10.50;99.90
4429;DHT22;2227;47.810;8.810;2022-11-15T15:29:00;10.50;99.90
4429;DHT22;2227;47.810;8.810;2022-11-15T15:31:26;10.40;99.90
4429;DHT22;2227;47.810;8.810;2022-11-15T15:33:53;10.40;99.90
4429;DHT22;2227;47.810;8.810;2022-11-15T15:36:20;10.40;99.90
4429;DHT22;2227;47.810;8.810;2022-11-15T15:38:47;10.40;99.90
4429;DHT22;2227;47.810;8.810;2022-11-15T15:41:15;10.40;99.90
4429;DHT22;2227;47.810;8.810;2022-11-15T15:43:42;10.40;99.90
4429;DHT22;2227;47.810;8.810;2022-11-15T15:46:14;10.40;99.90
4429;DHT22;2227;47.810;8.810;2022-11-15T15:48:41;10.50;99.90
4429;DHT22;2227;47.810;8.810;2022-11-15T15:51:08;10.40;99.90
4429;DHT22;2227;47.810;8.810;2022-11-15T15:53:45;10.40;99.90
4429;DHT22;2227;47.810;8.810;2022-11-15T15:56:12;10.40;99.90
4429;DHT22;2227;47.810;8.810;2022-11-15T15:58:39;10.40;99.90
4429;DHT22;2227;47.810;8.810;2022-11-15T16:01:05;10.40;99.90
4429;DHT22;2227;47.810;8.810;2022-11-15T16:03:32;10.40;99.90
4429;DHT22;2227;47.810;8.810;2022-11-15T16:05:59;10.40;99.90
4429;DHT22;2227;47.810;8.810;2022-11-15T16:08:26;10.40;99.90
4429;DHT22;2227;47.810;8.810;2022-11-15T16:11:16;10.30;99.90
4429;DHT22;2227;47.810;8.810;2022-11-15T16:13:43;10.30;99.90
4429;DHT22;2227;47.810;8.810;2022-11-15T16:16:12;10.30;99.90
4429;DHT22;2227;47.810;8.810;2022-11-15T16:18:39;10.30;99.90
4429;DHT22;2227;47.810;8.810;2022-11-15T16:21:08;10.30;99.90
4429;DHT22;2227;47.810;8.810;2022-11-15T16:23:34;10.30;99.90
4429;DHT22;2227;47.810;8.810;2022-11-15T16:26:01;10.20;99.90
4429;DHT22;2227;47.810;8.810;2022-11-15T16:28:31;10.10;99.90
4429;DHT22;2227;47.810;8.810;2022-11-15T16:33:27;10.10;99.90
4429;DHT22;2227;47.810;8.810;2022-11-15T16:35:54;10.00;99.90
4429;DHT22;2227;47.810;8.810;2022-11-15T16:38:20;10.10;99.90
4429;DHT22;2227;47.810;8.810;2022-11-15T16:40:47;10.10;99.90
4429;DHT22;2227;47.810;8.810;2022-11-15T16:43:14;10.00;99.90
4429;DHT22;2227;47.810;8.810;2022-11-15T16:45:41;10.10;99.90
4429;DHT22;2227;47.810;8.810;2022-11-15T16:48:23;10.10;99.90
4429;DHT22;2227;47.810;8.810;2022-11-15T16:50:54;10.10;99.90
4429;DHT22;2227;47.810;8.810;2022-11-15T16:53:22;10.10;99.90
4429;DHT22;2227;47.810;8.810;2022-11-15T16:55:49;10.00;99.90
4429;DHT22;2227;47.810;8.810;2022-11-15T16:58:16;9.90;99.90
4429;DHT22;2227;47.810;8.810;2022-11-15T17:00:43;9.90;99.90
4429;DHT22;2227;47.810;8.810;2022-11-15T17:03:10;9.90;99.90
4429;DHT22;2227;47.810;8.810;2022-11-15T17:05:37;9.90;99.90
4429;DHT22;2227;47.810;8.810;2022-11-15T17:08:04;9.90;99.90
4429;DHT22;2227;47.810;8.810;2022-11-15T17:10:32;9.80;99.90
4429;DHT22;2227;47.810;8.810;2022-11-15T17:12:58;9.70;99.90
4429;DHT22;2227;47.810;8.810;2022-11-15T17:15:25;9.70;99.90
4429;DHT22;2227;47.810;8.810;2022-11-15T17:17:53;9.80;99.90
4429;DHT22;2227;47.810;8.810;2022-11-15T17:20:22;9.90;99.90
4429;DHT22;2227;47.810;8.810;2022-11-15T17:22:50;9.80;99.90
4429;DHT22;2227;47.810;8.810;2022-11-15T17:25:18;9.90;99.90
4429;DHT22;2227;47.810;8.810;2022-11-15T17:27:46;9.90;99.90
4429;DHT22;2227;47.810;8.810;2022-11-15T17:30:13;9.90;99.90
4429;DHT22;2227;47.810;8.810;2022-11-15T17:32:42;9.90;99.90
4429;DHT22;2227;47.810;8.810;2022-11-15T17:37:44;10.00;99.90
4429;DHT22;2227;47.810;8.810;2022-11-15T17:40:11;9.80;99.90
4429;DHT22;2227;47.810;8.810;2022-11-15T17:42:40;9.90;99.90
4429;DHT22;2227;47.810;8.810;2022-11-15T17:45:08;10.00;99.90
4429;DHT22;2227;47.810;8.810;2022-11-15T17:47:36;9.90;99.90
4429;DHT22;2227;47.810;8.810;2022-11-15T17:50:03;9.90;99.90
4429;DHT22;2227;47.810;8.810;2022-11-15T17:52:30;9.90;99.90
4429;DHT22;2227;47.810;8.810;2022-11-15T17:54:56;9.90;99.90
4429;DHT22;2227;47.810;8.810;2022-11-15T17:57:23;9.90;99.90
4429;DHT22;2227;47.810;8.810;2022-11-15T17:59:50;9.90;99.90
4429;DHT22;2227;47.810;8.810;2022-11-15T18:02:16;10.00;99.90
4429;DHT22;2227;47.810;8.810;2022-11-15T18:04:44;9.90;99.90
4429;DHT22;2227;47.810;8.810;2022-11-15T18:07:11;9.90;99.90
4429;DHT22;2227;47.810;8.810;2022-11-15T18:09:39;10.00;99.90
4429;DHT22;2227;47.810;8.810;2022-11-15T18:12:10;10.00;99.90
4429;DHT22;2227;47.810;8.810;2022-11-15T18:14:36;10.00;99.90
4429;DHT22;2227;47.810;8.810;2022-11-15T18:17:03;10.00;99.90
4429;DHT22;2227;47.810;8.810;2022-11-15T18:19:30;10.10;99.90
4429;DHT22;2227;47.810;8.810;2022-11-15T18:21:57;10.00;99.90
4429;DHT22;2227;47.810;8.810;2022-11-15T18:26:54;10.10;99.90
4429;DHT22;2227;47.810;8.810;2022-11-15T18:29:21;9.90;99.90
4429;DHT22;2227;47.810;8.810;2022-11-15T18:31:50;9.90;99.90
4429;DHT22;2227;47.810;8.810;2022-11-15T18:34:22;9.90;99.90
4429;DHT22;2227;47.810;8.810;2022-11-15T18:36:52;9.90;99.90
4429;DHT22;2227;47.810;8.810;2022-11-15T18:39:19;10.00;99.90
4429;DHT22;2227;47.810;8.810;2022-11-15T18:41:46;10.10;99.90
4429;DHT22;2227;47.810;8.810;2022-11-15T18:44:13;10.10;99.90
4429;DHT22;2227;47.810;8.810;2022-11-15T18:46:40;10.10;99.90
4429;DHT22;2227;47.810;8.810;2022-11-15T18:49:08;10.20;99.90
4429;DHT22;2227;47.810;8.810;2022-11-15T18:51:36;10.20;99.90
4429;DHT22;2227;47.810;8.810;2022-11-15T18:54:08;10.30;99.90
4429;DHT22;2227;47.810;8.810;2022-11-15T18:56:36;10.30;99.90
4429;DHT22;2227;47.810;8.810;2022-11-15T18:59:03;10.30;99.90
4429;DHT22;2227;47.810;8.810;2022-11-15T19:01:33;10.20;99.90
4429;DHT22;2227;47.810;8.810;2022-11-15T19:04:05;10.20;99.90
4429;DHT22;2227;47.810;8.810;2022-11-15T19:06:36;10.20;99.90
4429;DHT22;2227;47.810;8.810;2022-11-15T19:09:03;10.10;99.90
4429;DHT22;2227;47.810;8.810;2022-11-15T19:11:32;10.00;99.90
4429;DHT22;2227;47.810;8.810;2022-11-15T19:14:03;9.90;99.90
4429;DHT22;2227;47.810;8.810;2022-11-15T19:16:35;9.80;99.90
4429;DHT22;2227;47.810;8.810;2022-11-15T19:19:05;9.90;99.90
4429;DHT22;2227;47.810;8.810;2022-11-15T19:21:32;9.90;99.90
4429;DHT22;2227;47.810;8.810;2022-11-15T19:23:59;9.90;99.90
4429;DHT22;2227;47.810;8.810;2022-11-15T19:26:27;9.90;99.90
4429;DHT22;2227;47.810;8.810;2022-11-15T19:28:56;9.90;99.90
4429;DHT22;2227;47.810;8.810;2022-11-15T19:31:25;9.90;99.90
4429;DHT22;2227;47.810;8.810;2022-11-15T19:33:53;9.90;99.90
4429;DHT22;2227;47.810;8.810;2022-11-15T19:36:27;9.90;99.90
4429;DHT22;2227;47.810;8.810;2022-11-15T19:38:55;9.90;99.90
4429;DHT22;2227;47.810;8.810;2022-11-15T19:41:23;9.70;99.90
4429;DHT22;2227;47.810;8.810;2022-11-15T19:43:50;9.80;99.90
4429;DHT22;2227;47.810;8.810;2022-11-15T19:46:22;9.70;99.90
4429;DHT22;2227;47.810;8.810;2022-11-15T19:48:49;9.70;99.90
4429;DHT22;2227;47.810;8.810;2022-11-15T19:51:19;9.70;99.90
4429;DHT22;2227;47.810;8.810;2022-11-15T19:53:51;9.70;99.90
4429;DHT22;2227;47.810;8.810;2022-11-15T19:56:19;9.60;99.90
4429;DHT22;2227;47.810;8.810;2022-11-15T19:58:50;9.60;99.90
4429;DHT22;2227;47.810;8.810;2022-11-15T20:01:20;9.70;99.90
4429;DHT22;2227;47.810;8.810;2022-11-15T20:03:48;9.70;99.90
4429;DHT22;2227;47.810;8.810;2022-11-15T20:06:20;9.70;99.90
4429;DHT22;2227;47.810;8.810;2022-11-15T20:08:47;9.70;99.90
4429;DHT22;2227;47.810;8.810;2022-11-15T20:11:15;9.70;99.90
4429;DHT22;2227;47.810;8.810;2022-11-15T20:13:42;9.60;99.90
4429;DHT22;2227;47.810;8.810;2022-11-15T20:16:20;9.70;99.90
4429;DHT22;2227;47.810;8.810;2022-11-15T20:18:50;9.70;99.90
4429;DHT22;2227;47.810;8.810;2022-11-15T20:21:19;9.70;99.90
4429;DHT22;2227;47.810;8.810;2022-11-15T20:23:46;9.60;99.90
4429;DHT22;2227;47.810;8.810;2022-11-15T20:26:13;9.60;99.90
4429;DHT22;2227;47.810;8.810;2022-11-15T20:28:41;9.60;99.90
4429;DHT22;2227;47.810;8.810;2022-11-15T20:31:10;9.60;99.90
4429;DHT22;2227;47.810;8.810;2022-11-15T20:33:37;9.60;99.90
4429;DHT22;2227;47.810;8.810;2022-11-15T20:36:06;9.70;99.90
4429;DHT22;2227;47.810;8.810;2022-11-15T20:38:33;9.60;99.90
4429;DHT22;2227;47.810;8.810;2022-11-15T20:41:00;9.60;99.90
4429;DHT22;2227;47.810;8.810;2022-11-15T20:43:27;9.50;99.90
4429;DHT22;2227;47.810;8.810;2022-11-15T20:45:54;9.60;99.90
4429;DHT22;2227;47.810;8.810;2022-11-15T20:48:21;9.60;99.90
4429;DHT22;2227;47.810;8.810;2022-11-15T20:50:48;9.60;99.90
4429;DHT22;2227;47.810;8.810;2022-11-15T20:53:17;9.60;99.90
4429;DHT22;2227;47.810;8.810;2022-11-15T20:55:46;9.50;99.90
4429;DHT22;2227;47.810;8.810;2022-11-15T20:58:14;9.50;99.90
4429;DHT22;2227;47.810;8.810;2022-11-15T21:00:42;9.60;99.90
4429;DHT22;2227;47.810;8.810;2022-11-15T21:03:11;9.60;99.90
4429;DHT22;2227;47.810;8.810;2022-11-15T21:05:39;9.70;99.90
4429;DHT22;2227;47.810;8.810;2022-11-15T21:08:07;9.70;99.90
4429;DHT22;2227;47.810;8.810;2022-11-15T21:10:34;9.70;99.90
4429;DHT22;2227;47.810;8.810;2022-11-15T21:13:19;9.70;99.90
4429;DHT22;2227;47.810;8.810;2022-11-15T21:15:46;9.60;99.90
4429;DHT22;2227;47.810;8.810;2022-11-15T21:18:14;9.50;99.90
4429;DHT22;2227;47.810;8.810;2022-11-15T21:20:41;9.50;99.90
4429;DHT22;2227;47.810;8.810;2022-11-15T21:23:08;9.40;99.90
4429;DHT22;2227;47.810;8.810;2022-11-15T21:25:35;9.40;99.90
4429;DHT22;2227;47.810;8.810;2022-11-15T21:28:01;9.50;99.90
4429;DHT22;2227;47.810;8.810;2022-11-15T21:30:28;9.40;99.90
4429;DHT22;2227;47.810;8.810;2022-11-15T21:32:55;9.50;99.90
4429;DHT22;2227;47.810;8.810;2022-11-15T21:35:22;9.60;99.90
4429;DHT22;2227;47.810;8.810;2022-11-15T21:37:49;9.70;99.90
4429;DHT22;2227;47.810;8.810;2022-11-15T21:40:22;9.80;99.90
4429;DHT22;2227;47.810;8.810;2022-11-15T21:42:49;9.90;99.90
4429;DHT22;2227;47.810;8.810;2022-11-15T21:45:16;10.00;99.90
4429;DHT22;2227;47.810;8.810;2022-11-15T21:47:42;10.00;99.90
4429;DHT22;2227;47.810;8.810;2022-11-15T21:50:12;10.00;99.90
4429;DHT22;2227;47.810;8.810;2022-11-15T21:52:39;10.10;99.90
4429;DHT22;2227;47.810;8.810;2022-11-15T21:55:07;10.20;99.90
4429;DHT22;2227;47.810;8.810;2022-11-15T21:57:34;10.20;99.90
4429;DHT22;2227;47.810;8.810;2022-11-15T22:00:03;10.20;99.90
4429;DHT22;2227;47.810;8.810;2022-11-15T22:02:48;10.10;99.90
4429;DHT22;2227;47.810;8.810;2022-11-15T22:05:15;10.10;99.90
4429;DHT22;2227;47.810;8.810;2022-11-15T22:07:41;10.10;99.90
4429;DHT22;2227;47.810;8.810;2022-11-15T22:10:08;10.10;99.90
4429;DHT22;2227;47.810;8.810;2022-11-15T22:12:35;10.10;99.90
4429;DHT22;2227;47.810;8.810;2022-11-15T22:15:02;10.10;99.90
4429;DHT22;2227;47.810;8.810;2022-11-15T22:17:29;10.10;99.90
4429;DHT22;2227;47.810;8.810;2022-11-15T22:20:17;10.00;99.90
4429;DHT22;2227;47.810;8.810;2022-11-15T22:23:04;10.00;99.90
4429;DHT22;2227;47.810;8.810;2022-11-15T22:25:31;9.90;99.90
4429;DHT22;2227;47.810;8.810;2022-11-15T22:27:58;10.00;99.90
4429;DHT22;2227;47.810;8.810;2022-11-15T22:30:25;10.00;99.90
4429;DHT22;2227;47.810;8.810;2022-11-15T22:32:51;10.00;99.90
4429;DHT22;2227;47.810;8.810;2022-11-15T22:35:18;9.90;99.90
4429;DHT22;2227;47.810;8.810;2022-11-15T22:37:45;9.80;99.90
4429;DHT22;2227;47.810;8.810;2022-11-15T22:40:11;9.80;99.90